createdAt,value
2019-03-04T00:00:23.881Z,12.64
2019-03-04T00:01:23.954Z,12.64
2019-03-04T00:02:23.816Z,12.56
2019-03-04T00:03:27.885Z,12.62
2019-03-04T00:04:23.853Z,12.60
2019-03-04T00:05:23.808Z,12.68
2019-03-04T00:06:23.812Z,12.68
2019-03-04T00:07:23.758Z,12.65
2019-03-04T00:08:25.367Z,12.70
2019-03-04T00:09:23.747Z,12.64
2019-03-04T00:10:24.092Z,12.62
2019-03-04T00:11:23.763Z,12.68
2019-03-04T00:12:23.795Z,12.86
2019-03-04T00:13:25.674Z,12.72
2019-03-04T00:14:24.413Z,12.78
2019-03-04T00:15:23.903Z,12.77
2019-03-04T00:16:23.675Z,12.79
2019-03-04T00:17:23.706Z,12.72
2019-03-04T00:18:23.687Z,12.60
2019-03-04T00:19:23.642Z,12.75
2019-03-04T00:20:23.638Z,12.79
2019-03-04T00:21:23.633Z,12.93
2019-03-04T00:22:23.695Z,12.83
2019-03-04T00:23:24.716Z,12.82
2019-03-04T00:24:23.617Z,12.86
2019-03-04T00:25:23.631Z,12.86
2019-03-04T00:26:26.364Z,12.89
2019-03-04T00:27:23.751Z,12.86
2019-03-04T00:28:23.556Z,12.90
2019-03-04T00:29:23.698Z,12.72
2019-03-04T00:30:23.538Z,12.78
2019-03-04T00:31:23.502Z,12.83
2019-03-04T00:32:23.492Z,12.82
2019-03-04T00:33:23.470Z,12.85
2019-03-04T00:34:24.256Z,12.77
2019-03-04T00:35:23.462Z,12.72
2019-03-04T00:36:25.376Z,12.82
2019-03-04T00:37:23.500Z,12.74
2019-03-04T00:38:23.555Z,12.72
2019-03-04T00:39:24.169Z,12.77
2019-03-04T00:40:23.413Z,12.70
2019-03-04T00:41:23.546Z,12.75
2019-03-04T00:42:23.390Z,12.78
2019-03-04T00:43:24.363Z,12.74
2019-03-04T00:44:23.441Z,12.79
2019-03-04T00:45:23.405Z,12.65
2019-03-04T00:46:23.349Z,12.60
2019-03-04T00:47:23.343Z,12.62
2019-03-04T00:48:23.308Z,12.70
2019-03-04T00:49:23.345Z,12.70
2019-03-04T00:50:23.322Z,12.70
2019-03-04T00:51:23.468Z,12.64
2019-03-04T00:52:23.426Z,12.64
2019-03-04T00:53:24.401Z,12.60
2019-03-04T00:54:23.243Z,12.70
2019-03-04T00:55:24.886Z,12.70
2019-03-04T00:56:23.444Z,12.67
2019-03-04T00:57:23.236Z,12.60
2019-03-04T00:58:23.215Z,12.53
2019-03-04T00:59:23.245Z,12.59
2019-03-04T01:00:25.879Z,12.49
2019-03-04T01:01:23.185Z,12.62
2019-03-04T01:02:23.167Z,12.60
2019-03-04T01:03:23.147Z,12.59
2019-03-04T01:04:23.178Z,12.49
2019-03-04T01:05:23.152Z,12.42
2019-03-04T01:06:23.110Z,12.39
2019-03-04T01:07:23.235Z,12.41
2019-03-04T01:08:23.090Z,12.49
2019-03-04T01:09:23.085Z,12.49
2019-03-04T01:10:23.107Z,12.41
2019-03-04T01:11:23.202Z,12.49
2019-03-04T01:12:23.048Z,12.39
2019-03-04T01:13:23.214Z,12.46
2019-03-04T01:14:23.195Z,12.41
2019-03-04T01:15:23.047Z,12.42
2019-03-04T01:16:23.057Z,12.45
2019-03-04T01:17:23.020Z,12.41
2019-03-04T01:18:23.028Z,12.49
2019-03-04T01:19:23.062Z,12.45
2019-03-04T01:20:22.969Z,12.41
2019-03-04T01:21:23.761Z,12.47
2019-03-04T01:22:23.034Z,12.49
2019-03-04T01:23:23.923Z,12.42
2019-03-04T01:24:22.915Z,12.37
2019-03-04T01:25:22.954Z,12.46
2019-03-04T01:26:22.934Z,12.39
2019-03-04T01:27:22.892Z,12.29
2019-03-04T01:28:22.863Z,12.45
2019-03-04T01:29:22.856Z,12.41
2019-03-04T01:30:23.365Z,12.42
2019-03-04T01:31:22.882Z,12.41
2019-03-04T01:32:22.820Z,12.41
2019-03-04T01:33:22.812Z,12.41
2019-03-04T01:34:22.924Z,12.41
2019-03-04T01:35:22.895Z,12.47
2019-03-04T01:36:22.779Z,12.39
2019-03-04T01:37:22.847Z,12.41
2019-03-04T01:38:22.781Z,12.50
2019-03-04T01:39:22.793Z,12.41
2019-03-04T01:40:22.953Z,12.41
2019-03-04T01:41:23.456Z,12.42
2019-03-04T01:42:22.803Z,12.49
2019-03-04T01:43:22.796Z,12.57
2019-03-04T01:44:23.852Z,12.41
2019-03-04T01:45:22.743Z,12.47
2019-03-04T01:46:22.707Z,12.46
2019-03-04T01:47:22.889Z,12.46
2019-03-04T01:48:25.656Z,12.45
2019-03-04T01:49:22.661Z,12.53
2019-03-04T01:50:22.629Z,12.56
2019-03-04T01:51:22.673Z,12.56
2019-03-04T01:52:22.704Z,12.49
2019-03-04T01:53:22.651Z,12.41
2019-03-04T01:54:22.579Z,12.42
2019-03-04T01:55:22.617Z,12.37
2019-03-04T01:56:22.775Z,12.41
2019-03-04T01:57:22.715Z,12.45
2019-03-04T01:58:22.572Z,12.42
2019-03-04T01:59:22.739Z,12.45
2019-03-04T02:00:22.598Z,12.47
2019-03-04T02:01:22.502Z,12.41
2019-03-04T02:02:22.501Z,12.46
2019-03-04T02:03:23.146Z,12.52
2019-03-04T02:04:22.470Z,12.57
2019-03-04T02:05:22.453Z,12.65
2019-03-04T02:06:22.455Z,12.65
2019-03-04T02:07:23.467Z,12.54
2019-03-04T02:08:22.450Z,12.50
2019-03-04T02:09:22.403Z,12.52
2019-03-04T02:10:22.399Z,12.56
2019-03-04T02:11:23.449Z,12.59
2019-03-04T02:12:22.421Z,12.46
2019-03-04T02:13:22.414Z,12.49
2019-03-04T02:14:22.868Z,12.53
2019-03-04T02:15:22.349Z,12.57
2019-03-04T02:16:22.396Z,12.57
2019-03-04T02:17:22.342Z,12.59
2019-03-04T02:18:22.367Z,12.56
2019-03-04T02:19:22.327Z,12.54
2019-03-04T02:20:22.284Z,12.59
2019-03-04T02:21:23.344Z,12.46
2019-03-04T02:22:22.287Z,12.52
2019-03-04T02:23:22.381Z,12.59
2019-03-04T02:24:23.174Z,12.62
2019-03-04T02:25:22.231Z,12.57
2019-03-04T02:26:22.220Z,12.57
2019-03-04T02:27:22.264Z,12.53
2019-03-04T02:28:22.198Z,12.57
2019-03-04T02:29:22.268Z,12.53
2019-03-04T02:30:22.866Z,12.54
2019-03-04T02:31:22.176Z,12.57
2019-03-04T02:32:22.163Z,12.62
2019-03-04T02:33:22.228Z,12.57
2019-03-04T02:34:22.221Z,12.54
2019-03-04T02:35:22.130Z,12.70
2019-03-04T02:36:22.157Z,12.65
2019-03-04T02:37:22.211Z,12.59
2019-03-04T02:38:22.099Z,12.64
2019-03-04T02:39:22.072Z,12.65
2019-03-04T02:40:22.129Z,12.56
2019-03-04T02:41:22.065Z,12.57
2019-03-04T02:42:22.899Z,12.57
2019-03-04T02:43:22.866Z,12.60
2019-03-04T02:44:22.021Z,12.59
2019-03-04T02:45:22.049Z,12.59
2019-03-04T02:46:22.011Z,12.59
2019-03-04T02:47:21.994Z,12.56
2019-03-04T02:48:22.105Z,12.56
2019-03-04T02:49:21.963Z,12.57
2019-03-04T02:50:21.989Z,12.56
2019-03-04T02:51:21.945Z,12.67
2019-03-04T02:52:22.146Z,12.53
2019-03-04T02:53:21.969Z,12.54
2019-03-04T02:54:21.913Z,12.46
2019-03-04T02:55:21.948Z,12.54
2019-03-04T02:56:21.901Z,12.57
2019-03-04T02:57:21.884Z,12.56
2019-03-04T02:58:21.924Z,12.41
2019-03-04T02:59:21.877Z,12.41
2019-03-04T03:00:21.848Z,12.59
2019-03-04T03:01:21.869Z,12.42
2019-03-04T03:02:21.819Z,12.56
2019-03-04T03:03:21.814Z,12.54
2019-03-04T03:04:21.871Z,12.56
2019-03-04T03:05:21.787Z,12.59
2019-03-04T03:06:21.806Z,12.54
2019-03-04T03:07:21.839Z,12.42
2019-03-04T03:08:21.786Z,12.45
2019-03-04T03:09:21.769Z,12.52
2019-03-04T03:10:21.751Z,12.53
2019-03-04T03:11:22.709Z,12.41
2019-03-04T03:12:21.764Z,12.46
2019-03-04T03:13:21.762Z,12.39
2019-03-04T03:14:21.696Z,12.37
2019-03-04T03:15:22.723Z,12.41
2019-03-04T03:16:21.738Z,12.31
2019-03-04T03:17:21.655Z,12.29
2019-03-04T03:18:21.657Z,12.29
2019-03-04T03:19:21.684Z,12.32
2019-03-04T03:20:21.685Z,12.32
2019-03-04T03:21:21.608Z,12.29
2019-03-04T03:22:21.625Z,12.21
2019-03-04T03:23:21.636Z,12.21
2019-03-04T03:24:22.368Z,12.20
2019-03-04T03:25:22.629Z,12.20
2019-03-04T03:26:22.454Z,12.23
2019-03-04T03:27:24.919Z,12.32
2019-03-04T03:28:22.444Z,12.31
2019-03-04T03:29:21.519Z,12.31
2019-03-04T03:30:21.531Z,12.28
2019-03-04T03:31:21.513Z,12.29
2019-03-04T03:32:21.494Z,12.29
2019-03-04T03:33:21.513Z,12.16
2019-03-04T03:34:21.493Z,12.16
2019-03-04T03:35:21.477Z,12.07
2019-03-04T03:36:21.459Z,12.05
2019-03-04T03:37:22.383Z,12.09
2019-03-04T03:38:22.181Z,12.07
2019-03-04T03:39:21.415Z,12.14
2019-03-04T03:40:21.432Z,12.01
2019-03-04T03:41:21.394Z,12.09
2019-03-04T03:42:21.394Z,12.12
2019-03-04T03:43:21.425Z,12.01
2019-03-04T03:44:21.381Z,11.95
2019-03-04T03:45:21.371Z,12.02
2019-03-04T03:46:21.406Z,12.04
2019-03-04T03:47:21.414Z,11.95
2019-03-04T03:48:21.343Z,11.91
2019-03-04T03:49:21.307Z,11.86
2019-03-04T03:50:21.316Z,11.96
2019-03-04T03:51:21.292Z,11.98
2019-03-04T03:52:21.287Z,11.88
2019-03-04T03:53:21.294Z,11.99
2019-03-04T03:54:21.248Z,11.96
2019-03-04T03:55:21.889Z,11.99
2019-03-04T03:56:21.332Z,11.98
2019-03-04T03:57:21.886Z,12.02
2019-03-04T03:58:21.234Z,12.01
2019-03-04T03:59:21.237Z,12.13
2019-03-04T04:00:21.935Z,12.04
2019-03-04T04:01:21.187Z,12.07
2019-03-04T04:02:21.214Z,12.13
2019-03-04T04:03:21.188Z,11.98
2019-03-04T04:04:21.141Z,12.10
2019-03-04T04:05:21.126Z,12.10
2019-03-04T04:06:21.127Z,12.14
2019-03-04T04:07:21.116Z,12.19
2019-03-04T04:08:21.178Z,12.07
2019-03-04T04:09:21.155Z,12.10
2019-03-04T04:10:21.083Z,12.16
2019-03-04T04:11:21.099Z,12.12
2019-03-04T04:12:21.877Z,12.12
2019-03-04T04:13:21.881Z,12.12
2019-03-04T04:14:21.163Z,12.13
2019-03-04T04:15:21.037Z,12.14
2019-03-04T04:16:21.102Z,12.29
2019-03-04T04:17:21.036Z,12.32
2019-03-04T04:18:20.994Z,12.39
2019-03-04T04:19:21.016Z,12.45
2019-03-04T04:20:20.977Z,12.35
2019-03-04T04:21:20.954Z,12.31
2019-03-04T04:22:21.030Z,12.42
2019-03-04T04:23:23.910Z,12.38
2019-03-04T04:24:20.963Z,12.45
2019-03-04T04:25:21.887Z,12.42
2019-03-04T04:26:20.900Z,12.54
2019-03-04T04:27:20.895Z,12.52
2019-03-04T04:28:20.869Z,12.56
2019-03-04T04:29:20.866Z,12.59
2019-03-04T04:30:20.947Z,12.45
2019-03-04T04:31:20.845Z,12.41
2019-03-04T04:32:20.847Z,12.45
2019-03-04T04:33:20.818Z,12.52
2019-03-04T04:34:21.508Z,12.42
2019-03-04T04:35:22.679Z,12.53
2019-03-04T04:36:23.482Z,12.42
2019-03-04T04:37:21.000Z,12.68
2019-03-04T04:38:21.027Z,12.78
2019-03-04T04:39:20.790Z,12.79
2019-03-04T04:40:22.678Z,12.71
2019-03-04T04:41:20.747Z,12.67
2019-03-04T04:42:21.458Z,12.60
2019-03-04T04:43:20.772Z,12.70
2019-03-04T04:44:20.697Z,12.67
2019-03-04T04:45:21.733Z,12.67
2019-03-04T04:46:20.708Z,12.86
2019-03-04T04:47:21.472Z,12.87
2019-03-04T04:48:20.643Z,12.83
2019-03-04T04:49:20.770Z,12.90
2019-03-04T04:50:23.839Z,12.86
2019-03-04T04:51:20.633Z,12.92
2019-03-04T04:52:20.608Z,12.82
2019-03-04T04:53:20.629Z,12.95
2019-03-04T04:54:20.618Z,12.95
2019-03-04T04:55:20.579Z,12.87
2019-03-04T04:56:20.587Z,12.86
2019-03-04T04:57:20.547Z,12.82
2019-03-04T04:58:20.541Z,12.92
2019-03-04T04:59:20.531Z,12.86
2019-03-04T05:00:20.517Z,12.93
2019-03-04T05:01:20.530Z,13.04
2019-03-04T05:02:20.508Z,12.96
2019-03-04T05:03:20.481Z,13.00
2019-03-04T05:04:20.505Z,13.01
2019-03-04T05:05:20.651Z,12.96
2019-03-04T05:06:20.554Z,12.92
2019-03-04T05:07:20.438Z,12.92
2019-03-04T05:08:20.423Z,13.03
2019-03-04T05:09:20.416Z,13.10
2019-03-04T05:10:22.416Z,12.97
2019-03-04T05:11:20.395Z,12.92
2019-03-04T05:12:20.411Z,12.93
2019-03-04T05:13:20.373Z,13.01
2019-03-04T05:14:20.413Z,12.95
2019-03-04T05:15:20.449Z,13.01
2019-03-04T05:16:20.933Z,13.12
2019-03-04T05:17:20.407Z,13.15
2019-03-04T05:18:20.957Z,13.17
2019-03-04T05:19:20.338Z,13.10
2019-03-04T05:20:20.307Z,12.97
2019-03-04T05:21:20.282Z,12.96
2019-03-04T05:22:20.321Z,13.01
2019-03-04T05:23:20.366Z,13.05
2019-03-04T05:24:20.319Z,12.93
2019-03-04T05:25:20.244Z,12.93
2019-03-04T05:26:20.314Z,12.89
2019-03-04T05:27:20.210Z,12.89
2019-03-04T05:28:20.367Z,12.92
2019-03-04T05:29:20.199Z,12.86
2019-03-04T05:30:25.898Z,12.87
2019-03-04T05:31:20.163Z,12.85
2019-03-04T05:32:20.905Z,12.86
2019-03-04T05:33:20.179Z,12.77
2019-03-04T05:34:20.154Z,12.72
2019-03-04T05:35:20.136Z,12.77
2019-03-04T05:36:20.160Z,12.71
2019-03-04T05:37:20.146Z,12.71
2019-03-04T05:38:21.903Z,12.75
2019-03-04T05:39:20.098Z,12.77
2019-03-04T05:40:20.115Z,12.72
2019-03-04T05:41:20.073Z,12.74
2019-03-04T05:42:20.070Z,12.85
2019-03-04T05:43:21.717Z,12.74
2019-03-04T05:44:20.025Z,12.77
2019-03-04T05:45:20.011Z,12.70
2019-03-04T05:46:20.012Z,12.70
2019-03-04T05:47:19.996Z,12.71
2019-03-04T05:48:20.073Z,12.68
2019-03-04T05:49:19.979Z,12.68
2019-03-04T05:50:20.997Z,12.68
2019-03-04T05:51:21.869Z,12.62
2019-03-04T05:52:19.938Z,12.65
2019-03-04T05:53:19.931Z,12.68
2019-03-04T05:54:19.945Z,12.75
2019-03-04T05:55:19.933Z,12.78
2019-03-04T05:56:19.896Z,12.64
2019-03-04T05:57:19.885Z,12.65
2019-03-04T05:58:19.888Z,12.59
2019-03-04T05:59:20.277Z,12.46
2019-03-04T06:00:19.847Z,12.31
2019-03-04T06:01:21.371Z,12.14
2019-03-04T06:02:19.830Z,12.02
2019-03-04T06:03:19.821Z,11.70
2019-03-04T06:04:20.382Z,11.62
2019-03-04T06:05:19.814Z,11.58
2019-03-04T06:06:19.839Z,11.52
2019-03-04T06:07:19.770Z,11.46
2019-03-04T06:08:19.760Z,11.58
2019-03-04T06:09:20.805Z,11.62
2019-03-04T06:10:19.948Z,11.78
2019-03-04T06:11:19.728Z,11.70
2019-03-04T06:12:19.730Z,11.70
2019-03-04T06:13:20.396Z,11.80
2019-03-04T06:14:19.686Z,11.80
2019-03-04T06:15:19.792Z,11.86
2019-03-04T06:16:19.715Z,11.82
2019-03-04T06:17:19.664Z,11.79
2019-03-04T06:18:19.806Z,11.79
2019-03-04T06:19:19.661Z,11.82
2019-03-04T06:20:19.707Z,11.83
2019-03-04T06:21:19.656Z,11.83
2019-03-04T06:22:19.620Z,11.86
2019-03-04T06:23:19.598Z,11.76
2019-03-04T06:24:19.652Z,11.80
2019-03-04T06:25:19.656Z,11.96
2019-03-04T06:26:19.576Z,11.86
2019-03-04T06:27:20.474Z,11.85
2019-03-04T06:28:19.559Z,11.94
2019-03-04T06:29:19.540Z,11.83
2019-03-04T06:30:20.514Z,11.85
2019-03-04T06:31:20.275Z,11.83
2019-03-04T06:32:23.493Z,11.85
2019-03-04T06:33:19.749Z,11.88
2019-03-04T06:34:19.523Z,11.86
2019-03-04T06:35:20.442Z,11.86
2019-03-04T06:36:19.450Z,11.69
2019-03-04T06:37:19.463Z,11.65
2019-03-04T06:38:19.432Z,11.65
2019-03-04T06:39:19.412Z,11.64
2019-03-04T06:40:19.507Z,11.64
2019-03-04T06:41:19.418Z,11.67
2019-03-04T06:42:19.397Z,11.62
2019-03-04T06:43:19.468Z,11.61
2019-03-04T06:44:19.355Z,11.52
2019-03-04T06:45:19.353Z,11.46
2019-03-04T06:46:19.404Z,11.46
2019-03-04T06:47:19.379Z,11.44
2019-03-04T06:48:19.406Z,11.44
2019-03-04T06:49:19.342Z,11.35
2019-03-04T06:50:19.327Z,11.37
2019-03-04T06:51:19.416Z,11.22
2019-03-04T06:52:19.288Z,11.15
2019-03-04T06:53:19.270Z,11.15
2019-03-04T06:54:19.278Z,11.15
2019-03-04T06:55:19.940Z,11.15
2019-03-04T06:56:19.300Z,11.24
2019-03-04T06:57:28.213Z,11.27
2019-03-04T06:58:20.229Z,11.11
2019-03-04T06:59:19.185Z,11.06
2019-03-04T07:00:19.187Z,11.07
2019-03-04T07:01:19.184Z,10.99
2019-03-04T07:02:19.930Z,10.92
2019-03-04T07:03:19.154Z,10.92
2019-03-04T07:04:19.128Z,10.97
2019-03-04T07:05:19.127Z,10.91
2019-03-04T07:06:22.888Z,10.88
2019-03-04T07:07:19.150Z,10.82
2019-03-04T07:08:19.092Z,10.85
2019-03-04T07:09:19.083Z,10.85
2019-03-04T07:10:19.263Z,10.82
2019-03-04T07:11:21.957Z,10.81
2019-03-04T07:12:19.060Z,10.68
2019-03-04T07:13:19.052Z,10.60
2019-03-04T07:14:19.023Z,10.56
2019-03-04T07:15:19.024Z,10.53
2019-03-04T07:16:19.039Z,10.47
2019-03-04T07:17:19.150Z,10.41
2019-03-04T07:18:19.042Z,10.38
2019-03-04T07:19:19.010Z,10.29
2019-03-04T07:20:21.931Z,10.26
2019-03-04T07:21:18.999Z,10.15
2019-03-04T07:22:19.718Z,10.07
2019-03-04T07:23:18.916Z,10.11
2019-03-04T07:24:18.912Z,10.08
2019-03-04T07:25:18.970Z,10.02
2019-03-04T07:26:18.906Z,9.97
2019-03-04T07:27:18.877Z,10.05
2019-03-04T07:28:19.724Z,10.04
2019-03-04T07:29:18.875Z,10.02
2019-03-04T07:30:18.911Z,10.04
2019-03-04T07:31:19.001Z,10.52
2019-03-04T07:32:18.980Z,11.10
2019-03-04T07:33:18.842Z,11.29
2019-03-04T07:34:18.809Z,11.44
2019-03-04T07:35:18.947Z,11.17
2019-03-04T07:36:18.772Z,10.38
2019-03-04T07:37:18.770Z,10.07
2019-03-04T07:38:18.772Z,10.05
2019-03-04T07:39:18.813Z,10.01
2019-03-04T07:40:18.746Z,9.96
2019-03-04T07:41:18.711Z,9.97
2019-03-04T07:42:18.772Z,9.84
2019-03-04T07:43:18.726Z,9.76
2019-03-04T07:44:18.736Z,9.72
2019-03-04T07:45:18.674Z,9.66
2019-03-04T07:46:18.675Z,9.61
2019-03-04T07:47:19.665Z,9.39
2019-03-04T07:48:18.684Z,9.04
2019-03-04T07:49:18.618Z,8.28
2019-03-04T07:50:18.662Z,7.61
2019-03-04T07:51:18.638Z,7.45
2019-03-04T07:52:18.763Z,7.24
2019-03-04T07:53:19.205Z,7.15
2019-03-04T07:54:19.221Z,7.15
2019-03-04T07:55:21.403Z,7.05
2019-03-04T07:56:18.721Z,7.13
2019-03-04T07:57:18.563Z,7.12
2019-03-04T07:58:18.536Z,7.07
2019-03-04T07:59:18.544Z,7.06
2019-03-04T08:00:18.531Z,6.99
2019-03-04T08:01:19.389Z,6.97
2019-03-04T08:02:18.626Z,6.84
2019-03-04T08:03:18.465Z,6.80
2019-03-04T08:04:19.217Z,6.79
2019-03-04T08:05:18.469Z,6.73
2019-03-04T08:06:18.435Z,6.70
2019-03-04T08:07:18.444Z,6.79
2019-03-04T08:08:18.421Z,6.87
2019-03-04T08:09:18.437Z,6.76
2019-03-04T08:10:18.421Z,6.76
2019-03-04T08:11:18.398Z,6.84
2019-03-04T08:12:18.369Z,6.77
2019-03-04T08:13:18.395Z,6.79
2019-03-04T08:14:19.240Z,6.71
2019-03-04T08:15:18.525Z,6.70
2019-03-04T08:16:18.331Z,6.70
2019-03-04T08:17:18.365Z,6.69
2019-03-04T08:18:18.513Z,6.61
2019-03-04T08:19:18.309Z,6.69
2019-03-04T08:20:18.352Z,6.69
2019-03-04T08:21:18.268Z,6.56
2019-03-04T08:22:18.254Z,6.46
2019-03-04T08:23:18.262Z,6.55
2019-03-04T08:24:18.256Z,6.51
2019-03-04T08:25:19.247Z,6.52
2019-03-04T08:26:18.233Z,6.69
2019-03-04T08:27:18.195Z,6.61
2019-03-04T08:28:18.227Z,6.73
2019-03-04T08:29:18.208Z,6.66
2019-03-04T08:30:18.197Z,6.70
2019-03-04T08:31:18.262Z,6.69
2019-03-04T08:32:18.141Z,6.64
2019-03-04T08:33:18.152Z,6.64
2019-03-04T08:34:18.136Z,6.66
2019-03-04T08:35:18.165Z,6.71
2019-03-04T08:36:18.900Z,6.77
2019-03-04T08:37:18.101Z,7.13
2019-03-04T08:38:18.075Z,7.03
2019-03-04T08:39:18.145Z,7.82
2019-03-04T08:40:18.085Z,8.59
2019-03-04T08:41:18.133Z,8.30
2019-03-04T08:42:18.056Z,8.47
2019-03-04T08:43:18.073Z,8.25
2019-03-04T08:44:18.023Z,8.26
2019-03-04T08:45:18.780Z,8.18
2019-03-04T08:46:18.012Z,8.44
2019-03-04T08:47:17.985Z,8.55
2019-03-04T08:48:17.962Z,8.58
2019-03-04T08:49:18.152Z,8.52
2019-03-04T08:50:18.983Z,8.29
2019-03-04T08:51:18.056Z,8.15
2019-03-04T08:52:17.924Z,8.16
2019-03-04T08:53:17.921Z,8.07
2019-03-04T08:54:17.914Z,8.30
2019-03-04T08:55:17.884Z,8.87
2019-03-04T08:56:20.421Z,9.46
2019-03-04T08:57:17.898Z,9.01
2019-03-04T08:58:17.853Z,8.73
2019-03-04T08:59:17.851Z,8.71
2019-03-04T09:00:17.831Z,8.77
2019-03-04T09:01:17.871Z,8.84
2019-03-04T09:02:17.864Z,8.66
2019-03-04T09:03:17.819Z,8.66
2019-03-04T09:04:17.837Z,8.63
2019-03-04T09:05:17.775Z,8.71
2019-03-04T09:06:20.489Z,8.63
2019-03-04T09:07:17.747Z,8.59
2019-03-04T09:08:17.759Z,8.77
2019-03-04T09:09:17.763Z,8.80
2019-03-04T09:10:17.721Z,8.91
2019-03-04T09:11:18.306Z,8.96
2019-03-04T09:12:17.735Z,8.94
2019-03-04T09:13:18.396Z,8.91
2019-03-04T09:14:17.666Z,8.99
2019-03-04T09:15:17.740Z,9.10
2019-03-04T09:16:18.262Z,9.08
2019-03-04T09:17:17.652Z,9.10
2019-03-04T09:18:17.636Z,9.13
2019-03-04T09:19:17.640Z,9.15
2019-03-04T09:20:17.631Z,9.20
2019-03-04T09:21:18.267Z,9.17
2019-03-04T09:22:17.592Z,9.18
2019-03-04T09:23:17.609Z,9.14
2019-03-04T09:24:17.574Z,9.20
2019-03-04T09:25:17.555Z,9.13
2019-03-04T09:26:17.640Z,9.21
2019-03-04T09:27:20.255Z,9.15
2019-03-04T09:28:17.518Z,9.23
2019-03-04T09:29:20.444Z,9.15
2019-03-04T09:30:17.499Z,9.18
2019-03-04T09:31:17.696Z,9.14
2019-03-04T09:32:17.488Z,9.23
2019-03-04T09:33:17.493Z,9.31
2019-03-04T09:34:18.405Z,9.43
2019-03-04T09:35:17.509Z,9.56
2019-03-04T09:36:17.539Z,9.56
2019-03-04T09:37:17.566Z,9.66
2019-03-04T09:38:18.319Z,9.66
2019-03-04T09:39:17.520Z,9.72
2019-03-04T09:40:17.388Z,9.93
2019-03-04T09:41:17.400Z,9.79
2019-03-04T09:42:17.427Z,9.76
2019-03-04T09:43:18.271Z,9.72
2019-03-04T09:44:17.343Z,9.69
2019-03-04T09:45:17.343Z,9.68
2019-03-04T09:46:17.394Z,9.65
2019-03-04T09:47:17.305Z,9.74
2019-03-04T09:48:18.423Z,9.78
2019-03-04T09:49:17.312Z,9.74
2019-03-04T09:50:17.282Z,9.83
2019-03-04T09:51:24.452Z,9.89
2019-03-04T09:52:18.250Z,9.86
2019-03-04T09:53:17.425Z,9.93
2019-03-04T09:54:18.247Z,9.97
2019-03-04T09:55:17.360Z,9.78
2019-03-04T09:56:17.214Z,9.66
2019-03-04T09:57:17.237Z,9.60
2019-03-04T09:58:17.226Z,9.40
2019-03-04T09:59:17.218Z,9.39
2019-03-04T10:00:17.197Z,9.43
2019-03-04T10:01:17.157Z,9.42
2019-03-04T10:02:17.169Z,9.43
2019-03-04T10:03:17.133Z,9.64
2019-03-04T10:04:17.796Z,9.76
2019-03-04T10:05:17.107Z,10.23
2019-03-04T10:06:17.103Z,9.86
2019-03-04T10:07:17.173Z,9.64
2019-03-04T10:08:17.214Z,9.53
2019-03-04T10:09:17.094Z,9.46
2019-03-04T10:10:17.898Z,9.58
2019-03-04T10:11:19.912Z,9.29
2019-03-04T10:12:18.924Z,9.24
2019-03-04T10:13:17.082Z,9.29
2019-03-04T10:14:17.088Z,9.23
2019-03-04T10:15:17.002Z,9.15
2019-03-04T10:16:18.899Z,9.13
2019-03-04T10:17:17.004Z,9.23
2019-03-04T10:18:16.983Z,9.14
2019-03-04T10:19:16.993Z,9.33
2019-03-04T10:20:18.252Z,9.29
2019-03-04T10:21:16.927Z,9.21
2019-03-04T10:22:16.964Z,9.24
2019-03-04T10:23:16.925Z,9.20
2019-03-04T10:24:17.508Z,9.18
2019-03-04T10:25:18.784Z,9.13
2019-03-04T10:26:22.548Z,9.15
2019-03-04T10:27:17.890Z,8.98
2019-03-04T10:28:16.846Z,9.08
2019-03-04T10:29:16.863Z,8.96
2019-03-04T10:30:16.863Z,9.04
2019-03-04T10:31:17.425Z,8.95
2019-03-04T10:32:16.834Z,8.92
2019-03-04T10:33:16.800Z,8.83
2019-03-04T10:34:16.844Z,8.76
2019-03-04T10:35:16.800Z,8.65
2019-03-04T10:36:16.878Z,8.56
2019-03-04T10:37:16.782Z,8.40
2019-03-04T10:38:22.628Z,8.30
2019-03-04T10:39:22.173Z,8.11
2019-03-04T10:40:19.666Z,8.05
2019-03-04T10:41:16.756Z,7.90
2019-03-04T10:42:16.740Z,7.72
2019-03-04T10:43:16.679Z,7.53
2019-03-04T10:44:16.780Z,6.06
2019-03-04T10:45:18.232Z,5.51
2019-03-04T10:46:16.683Z,5.09
2019-03-04T10:47:16.672Z,5.12
2019-03-04T10:48:16.627Z,5.18
2019-03-04T10:49:16.618Z,5.36
2019-03-04T10:50:16.656Z,5.33
2019-03-04T10:51:18.660Z,5.42
2019-03-04T10:52:16.583Z,5.45
2019-03-04T10:53:16.567Z,5.46
2019-03-04T10:54:16.641Z,5.48
2019-03-04T10:55:16.554Z,5.39
2019-03-04T10:56:17.261Z,5.39
2019-03-04T10:57:16.563Z,5.40
2019-03-04T10:58:16.535Z,5.40
2019-03-04T10:59:16.518Z,5.38
2019-03-04T11:00:16.503Z,5.36
2019-03-04T11:01:16.482Z,5.36
2019-03-04T11:02:16.504Z,5.43
2019-03-04T11:03:16.453Z,5.38
2019-03-04T11:04:16.487Z,5.36
2019-03-04T11:05:16.444Z,5.46
2019-03-04T11:06:16.424Z,5.40
2019-03-04T11:07:17.331Z,5.42
2019-03-04T11:08:16.404Z,5.31
2019-03-04T11:09:16.414Z,5.33
2019-03-04T11:10:16.398Z,5.36
2019-03-04T11:11:16.391Z,5.35
2019-03-04T11:12:20.290Z,5.33
2019-03-04T11:13:16.365Z,5.45
2019-03-04T11:14:16.394Z,5.35
2019-03-04T11:15:16.370Z,5.38
2019-03-04T11:16:16.331Z,5.27
2019-03-04T11:17:16.311Z,5.30
2019-03-04T11:18:16.324Z,5.35
2019-03-04T11:19:16.349Z,5.42
2019-03-04T11:20:16.274Z,5.35
2019-03-04T11:21:16.314Z,5.35
2019-03-04T11:22:16.262Z,5.39
2019-03-04T11:23:16.266Z,5.48
2019-03-04T11:24:16.231Z,5.39
2019-03-04T11:25:16.249Z,5.42
2019-03-04T11:26:16.210Z,5.45
2019-03-04T11:27:16.203Z,5.38
2019-03-04T11:28:17.918Z,5.39
2019-03-04T11:29:16.303Z,5.40
2019-03-04T11:30:16.192Z,5.42
2019-03-04T11:31:16.156Z,5.36
2019-03-04T11:32:16.153Z,5.31
2019-03-04T11:33:16.145Z,5.43
2019-03-04T11:34:16.159Z,5.43
2019-03-04T11:35:16.307Z,5.42
2019-03-04T11:36:16.095Z,5.53
2019-03-04T11:37:16.108Z,5.39
2019-03-04T11:38:16.072Z,5.56
2019-03-04T11:39:16.097Z,5.53
2019-03-04T11:40:16.052Z,5.51
2019-03-04T11:41:16.119Z,5.51
2019-03-04T11:42:16.168Z,5.58
2019-03-04T11:43:16.166Z,5.64
2019-03-04T11:44:16.039Z,5.83
2019-03-04T11:45:16.000Z,6.11
2019-03-04T11:46:16.034Z,6.27
2019-03-04T11:47:15.972Z,6.19
2019-03-04T11:48:15.968Z,6.33
2019-03-04T11:49:16.015Z,6.11
2019-03-04T11:50:15.946Z,6.21
2019-03-04T11:51:15.936Z,6.09
2019-03-04T11:52:15.930Z,6.11
2019-03-04T11:53:15.926Z,6.19
2019-03-04T11:54:16.855Z,6.12
2019-03-04T11:55:15.884Z,6.12
2019-03-04T11:56:15.868Z,6.21
2019-03-04T11:57:15.876Z,6.40
2019-03-04T11:58:15.853Z,6.59
2019-03-04T11:59:15.842Z,6.55
2019-03-04T12:00:15.966Z,6.76
2019-03-04T12:01:15.824Z,6.54
2019-03-04T12:02:15.827Z,6.17
2019-03-04T12:03:15.817Z,6.04
2019-03-04T12:04:15.839Z,5.99
2019-03-04T12:05:15.798Z,5.85
2019-03-04T12:06:15.824Z,5.94
2019-03-04T12:07:15.808Z,5.89
2019-03-04T12:08:16.783Z,5.97
2019-03-04T12:09:15.736Z,5.85
2019-03-04T12:10:15.998Z,5.93
2019-03-04T12:11:15.731Z,5.96
2019-03-04T12:12:15.703Z,5.97
2019-03-04T12:13:15.701Z,6.03
2019-03-04T12:14:15.766Z,6.22
2019-03-04T12:15:15.664Z,6.52
2019-03-04T12:16:15.694Z,7.30
2019-03-04T12:17:15.808Z,7.75
2019-03-04T12:18:15.637Z,8.22
2019-03-04T12:19:15.652Z,7.97
2019-03-04T12:20:15.746Z,7.43
2019-03-04T12:21:16.292Z,7.31
2019-03-04T12:22:15.605Z,6.99
2019-03-04T12:23:15.571Z,6.85
2019-03-04T12:24:15.585Z,6.74
2019-03-04T12:25:15.555Z,6.73
2019-03-04T12:26:18.490Z,6.79
2019-03-04T12:27:15.548Z,6.87
2019-03-04T12:28:15.522Z,6.98
2019-03-04T12:29:15.510Z,6.87
2019-03-04T12:30:15.495Z,6.88
2019-03-04T12:31:17.428Z,6.81
2019-03-04T12:32:15.488Z,6.64
2019-03-04T12:33:15.461Z,6.64
2019-03-04T12:34:24.444Z,6.76
2019-03-04T12:35:16.444Z,6.64
2019-03-04T12:36:15.433Z,6.67
2019-03-04T12:37:15.486Z,6.73
2019-03-04T12:38:15.413Z,6.89
2019-03-04T12:39:15.900Z,6.97
2019-03-04T12:40:15.951Z,6.87
2019-03-04T12:41:15.370Z,7.02
2019-03-04T12:42:15.404Z,6.80
2019-03-04T12:43:15.350Z,6.97
2019-03-04T12:44:15.341Z,7.02
2019-03-04T12:45:15.327Z,7.10
2019-03-04T12:46:15.332Z,7.10
2019-03-04T12:47:16.437Z,7.06
2019-03-04T12:48:15.944Z,7.12
2019-03-04T12:49:15.304Z,7.07
2019-03-04T12:50:15.270Z,7.13
2019-03-04T12:51:22.791Z,7.13
2019-03-04T12:52:18.938Z,7.30
2019-03-04T12:53:15.285Z,7.15
2019-03-04T12:54:15.254Z,7.21
2019-03-04T12:55:15.212Z,7.03
2019-03-04T12:56:15.366Z,6.99
2019-03-04T12:57:15.485Z,6.94
2019-03-04T12:58:16.814Z,6.84
2019-03-04T12:59:15.238Z,6.87
2019-03-04T13:00:15.229Z,6.99
2019-03-04T13:01:16.212Z,6.99
2019-03-04T13:02:15.288Z,7.09
2019-03-04T13:03:15.173Z,7.03